createdAt,value
2019-02-16T00:01:37.976Z,3.70
2019-02-16T00:04:06.593Z,4.60
2019-02-16T00:06:35.207Z,3.70
2019-02-16T00:09:03.843Z,3.80
2019-02-16T00:11:32.477Z,3.57
2019-02-16T00:14:01.108Z,3.57
2019-02-16T00:16:29.779Z,3.93
2019-02-16T00:18:58.399Z,3.50
2019-02-16T00:21:27.034Z,3.57
2019-02-16T00:23:55.653Z,5.37
2019-02-16T00:26:24.271Z,4.67
2019-02-16T00:28:52.887Z,3.90
2019-02-16T00:31:21.501Z,5.30
2019-02-16T00:33:50.109Z,7.00
2019-02-16T00:36:18.735Z,3.67
2019-02-16T00:38:47.355Z,4.13
2019-02-16T00:41:15.980Z,5.33
2019-02-16T00:43:44.583Z,5.73
2019-02-16T00:46:13.206Z,5.80
2019-02-16T00:48:41.805Z,5.70
2019-02-16T00:51:13.723Z,6.43
2019-02-16T00:53:39.954Z,3.80
2019-02-16T00:56:07.657Z,3.53
2019-02-16T00:58:36.270Z,3.93
2019-02-16T01:01:04.896Z,4.83
2019-02-16T01:03:33.506Z,7.17
2019-02-16T01:06:02.159Z,8.07
2019-02-16T01:08:30.829Z,8.60
2019-02-16T01:10:59.451Z,6.83
2019-02-16T01:13:28.066Z,10.00
2019-02-16T01:15:56.691Z,11.80
2019-02-16T01:18:25.297Z,12.13
2019-02-16T01:20:53.939Z,11.07
2019-02-16T01:23:22.512Z,9.77
2019-02-16T01:25:51.598Z,8.63
2019-02-16T01:28:20.149Z,11.30
2019-02-16T01:30:48.783Z,13.43
2019-02-16T01:33:17.383Z,14.00
2019-02-16T01:35:46.347Z,14.90
2019-02-16T01:38:14.965Z,13.97
2019-02-16T01:40:43.585Z,16.30
2019-02-16T01:43:12.200Z,23.77
2019-02-16T01:45:41.182Z,21.17
2019-02-16T01:48:09.814Z,12.63
2019-02-16T01:50:38.435Z,14.37
2019-02-16T01:53:07.337Z,19.90
2019-02-16T01:55:35.960Z,26.60
2019-02-16T01:58:04.594Z,18.37
2019-02-16T02:00:33.223Z,16.73
2019-02-16T02:03:01.852Z,14.60
2019-02-16T02:05:30.471Z,21.30
2019-02-16T02:07:59.093Z,26.90
2019-02-16T02:10:27.713Z,22.97
2019-02-16T02:12:56.348Z,21.27
2019-02-16T02:15:24.982Z,18.43
2019-02-16T02:17:53.616Z,12.67
2019-02-16T02:20:22.542Z,7.73
2019-02-16T02:22:51.188Z,4.80
2019-02-16T02:25:19.795Z,5.73
2019-02-16T02:27:48.701Z,4.87
2019-02-16T02:30:17.336Z,7.30
2019-02-16T02:32:46.305Z,5.37
2019-02-16T02:35:15.268Z,6.00
2019-02-16T02:37:43.869Z,6.57
2019-02-16T02:40:12.517Z,4.50
2019-02-16T02:42:41.151Z,4.23
2019-02-16T02:45:10.102Z,5.47
2019-02-16T02:47:39.011Z,3.93
2019-02-16T02:50:07.667Z,4.20
2019-02-16T02:52:36.285Z,5.03
2019-02-16T02:55:04.928Z,5.20
2019-02-16T02:57:33.563Z,4.17
2019-02-16T03:00:02.187Z,4.73
2019-02-16T03:02:30.852Z,4.33
2019-02-16T03:04:59.477Z,2.77
2019-02-16T03:07:28.108Z,5.30
2019-02-16T03:09:56.733Z,4.13
2019-02-16T03:12:25.410Z,4.57
2019-02-16T03:14:54.025Z,4.37
2019-02-16T03:17:22.657Z,4.33
2019-02-16T03:19:51.269Z,3.83
2019-02-16T03:22:19.918Z,4.40
2019-02-16T03:24:48.523Z,3.87
2019-02-16T03:27:35.859Z,3.40
2019-02-16T03:30:13.562Z,2.63
2019-02-16T03:32:51.524Z,2.67
2019-02-16T03:38:32.094Z,3.33
2019-02-16T03:41:01.048Z,3.20
2019-02-16T03:43:29.622Z,3.00
2019-02-16T03:45:58.251Z,2.93
2019-02-16T03:48:26.874Z,2.63
2019-02-16T03:50:55.478Z,2.47
2019-02-16T03:53:24.131Z,2.00
2019-02-16T03:55:52.743Z,3.13
2019-02-16T03:58:21.392Z,3.37
2019-02-16T04:00:50.023Z,3.20
2019-02-16T04:03:18.641Z,3.33
2019-02-16T04:05:47.556Z,2.93
2019-02-16T04:08:16.542Z,3.50
2019-02-16T04:10:45.432Z,3.13
2019-02-16T04:13:14.052Z,6.90
2019-02-16T04:15:42.676Z,3.70
2019-02-16T04:18:11.289Z,4.63
2019-02-16T04:20:39.903Z,3.07
2019-02-16T04:23:08.655Z,3.17
2019-02-16T04:25:37.275Z,4.63
2019-02-16T04:28:05.926Z,3.57
2019-02-16T04:30:34.535Z,3.67
2019-02-16T04:33:03.159Z,5.00
2019-02-16T04:35:32.172Z,4.53
2019-02-16T04:38:00.808Z,5.60
2019-02-16T04:40:29.739Z,4.33
2019-02-16T04:42:58.387Z,5.40
2019-02-16T04:45:26.994Z,8.37
2019-02-16T04:47:55.628Z,4.90
2019-02-16T04:50:24.260Z,5.20
2019-02-16T04:52:52.869Z,6.57
2019-02-16T04:55:21.492Z,6.23
2019-02-16T04:57:50.427Z,7.67
2019-02-16T05:00:19.073Z,7.17
2019-02-16T05:02:48.325Z,6.40
2019-02-16T05:05:16.988Z,6.70
2019-02-16T05:07:45.599Z,8.90
2019-02-16T05:10:14.235Z,7.33
2019-02-16T05:12:43.145Z,8.40
2019-02-16T05:15:11.778Z,7.07
2019-02-16T05:17:40.719Z,8.83
2019-02-16T05:20:09.349Z,5.77
2019-02-16T05:22:44.588Z,9.23
2019-02-16T05:25:06.617Z,8.73
2019-02-16T05:27:35.240Z,6.97
2019-02-16T05:30:03.888Z,5.97
2019-02-16T05:32:32.486Z,5.60
2019-02-16T05:35:01.126Z,4.67
2019-02-16T05:37:30.497Z,5.00
2019-02-16T05:39:58.399Z,2.70
2019-02-16T05:42:27.290Z,2.73
2019-02-16T05:44:56.238Z,2.00
2019-02-16T05:47:25.128Z,2.30
2019-02-16T05:49:54.325Z,2.27
2019-02-16T05:52:22.961Z,1.63
2019-02-16T05:54:51.915Z,3.20
2019-02-16T05:57:20.542Z,2.50
2019-02-16T05:59:49.162Z,3.70
2019-02-16T06:02:18.151Z,3.00
2019-02-16T06:04:46.801Z,3.07
2019-02-16T06:07:15.415Z,1.87
2019-02-16T06:09:44.408Z,1.83
2019-02-16T06:12:13.022Z,1.40
2019-02-16T06:14:41.656Z,1.10
2019-02-16T06:17:10.268Z,1.70
2019-02-16T06:19:38.890Z,3.77
2019-02-16T06:22:07.530Z,3.60
2019-02-16T06:24:36.150Z,0.90
2019-02-16T06:27:04.756Z,2.23
2019-02-16T06:29:33.414Z,1.90
2019-02-16T06:32:02.036Z,1.30
2019-02-16T06:34:32.344Z,1.90
2019-02-16T06:36:59.294Z,1.23
2019-02-16T06:39:27.926Z,0.80
2019-02-16T06:41:56.569Z,1.43
2019-02-16T06:44:25.203Z,1.50
2019-02-16T06:46:54.150Z,1.63
2019-02-16T06:49:23.042Z,4.83
2019-02-16T06:51:52.059Z,2.40
2019-02-16T06:54:20.679Z,2.73
2019-02-16T06:56:49.629Z,6.33
2019-02-16T06:59:18.227Z,7.97
2019-02-16T07:01:46.849Z,6.93
2019-02-16T07:04:15.790Z,8.13
2019-02-16T07:06:44.443Z,8.03
2019-02-16T07:09:13.050Z,6.27
2019-02-16T07:11:41.680Z,7.80
2019-02-16T07:14:10.594Z,5.30
2019-02-16T07:16:39.217Z,3.13
2019-02-16T07:19:08.170Z,3.27
2019-02-16T07:21:37.394Z,3.33
2019-02-16T07:24:06.029Z,7.10
2019-02-16T07:26:34.692Z,5.60
2019-02-16T07:29:03.303Z,3.60
2019-02-16T07:31:31.931Z,4.97
2019-02-16T07:34:00.544Z,4.47
2019-02-16T07:36:29.190Z,4.00
2019-02-16T07:38:57.809Z,5.50
2019-02-16T07:41:26.456Z,6.43
2019-02-16T07:43:55.077Z,4.60
2019-02-16T07:46:24.001Z,5.07
2019-02-16T07:48:52.994Z,5.70
2019-02-16T07:51:21.640Z,5.73
2019-02-16T07:53:50.265Z,6.10
2019-02-16T07:56:18.900Z,7.03
2019-02-16T07:58:47.530Z,10.33
2019-02-16T08:01:16.511Z,8.03
2019-02-16T08:03:45.133Z,11.53
2019-02-16T08:06:13.781Z,9.63
2019-02-16T08:08:42.399Z,9.47
2019-02-16T08:11:11.058Z,7.63
2019-02-16T08:13:39.667Z,7.17
2019-02-16T08:16:08.294Z,4.00
2019-02-16T08:18:36.922Z,4.87
2019-02-16T08:21:05.551Z,3.93
2019-02-16T08:23:40.114Z,5.23
2019-02-16T08:26:02.802Z,2.37
2019-02-16T08:28:31.749Z,0.90
2019-02-16T08:31:00.377Z,3.20
2019-02-16T08:33:29.003Z,1.00
2019-02-16T08:35:57.643Z,1.07
2019-02-16T08:38:26.270Z,1.07
2019-02-16T08:40:54.884Z,2.43
2019-02-16T08:43:23.516Z,3.07
2019-02-16T08:45:52.441Z,2.07
2019-02-16T08:48:21.081Z,1.00
2019-02-16T08:50:49.693Z,2.03
2019-02-16T08:53:18.337Z,0.77
2019-02-16T08:55:47.198Z,2.73
2019-02-16T08:58:15.935Z,1.47
2019-02-16T09:00:44.559Z,2.03
2019-02-16T09:03:13.193Z,1.20
2019-02-16T09:05:41.833Z,0.83
2019-02-16T09:08:10.780Z,2.30
2019-02-16T09:10:39.455Z,0.80
2019-02-16T09:13:08.087Z,0.83
2019-02-16T09:15:37.026Z,1.47
2019-02-16T09:18:05.676Z,1.10
2019-02-16T09:20:34.603Z,0.97
2019-02-16T09:23:03.240Z,0.60
2019-02-16T09:25:31.844Z,2.13
2019-02-16T09:28:00.765Z,1.20
2019-02-16T09:30:29.400Z,2.40
2019-02-16T09:32:58.057Z,3.10
2019-02-16T09:35:26.680Z,5.43
2019-02-16T09:37:55.363Z,3.97
2019-02-16T09:40:23.984Z,2.10
2019-02-16T09:42:52.962Z,2.77
2019-02-16T09:45:21.596Z,4.27
2019-02-16T09:47:50.550Z,6.87
2019-02-16T09:50:19.164Z,4.07
2019-02-16T09:52:48.105Z,4.20
2019-02-16T09:55:16.736Z,2.67
2019-02-16T09:57:45.681Z,2.40
2019-02-16T10:00:14.312Z,2.80
2019-02-16T10:02:42.935Z,1.73
2019-02-16T10:05:11.594Z,1.13
2019-02-16T10:07:40.198Z,1.77
2019-02-16T10:10:08.832Z,3.17
2019-02-16T10:12:37.464Z,2.97
2019-02-16T10:15:07.035Z,1.10
2019-02-16T10:17:34.721Z,1.53
2019-02-16T10:20:03.730Z,3.33
2019-02-16T10:22:32.349Z,2.07
2019-02-16T10:25:00.981Z,1.77
2019-02-16T10:27:29.600Z,2.27
2019-02-16T10:29:58.227Z,1.80
2019-02-16T10:32:26.858Z,1.37
2019-02-16T10:34:55.835Z,1.23
2019-02-16T10:37:24.844Z,0.90
2019-02-16T10:39:53.479Z,0.80
2019-02-16T10:42:22.116Z,0.93
2019-02-16T10:44:50.750Z,2.13
2019-02-16T10:47:19.365Z,3.77
2019-02-16T10:49:48.348Z,1.60
2019-02-16T10:52:17.337Z,1.67
2019-02-16T10:54:45.970Z,1.30
2019-02-16T10:57:14.583Z,1.92
2019-02-16T10:59:43.564Z,8.63
2019-02-16T11:02:12.195Z,4.83
2019-02-16T11:04:41.167Z,14.53
2019-02-16T11:07:09.815Z,10.23
2019-02-16T11:09:38.438Z,9.57
2019-02-16T11:12:07.086Z,11.63
2019-02-16T11:14:36.011Z,14.23
2019-02-16T11:17:04.907Z,12.47
2019-02-16T11:19:33.784Z,12.93
2019-02-16T11:22:04.363Z,12.70
2019-02-16T11:24:36.021Z,14.00
2019-02-16T11:27:00.355Z,12.37
2019-02-16T11:29:28.972Z,11.17
2019-02-16T11:31:57.611Z,10.77
2019-02-16T11:34:26.640Z,11.23
2019-02-16T11:36:55.300Z,11.97
2019-02-16T11:39:23.925Z,10.93
2019-02-16T11:41:52.866Z,11.67
2019-02-16T11:44:21.468Z,10.20
2019-02-16T11:46:50.107Z,10.70
2019-02-16T11:49:19.021Z,11.03
2019-02-16T11:51:47.668Z,9.90
2019-02-16T11:54:16.284Z,11.60
2019-02-16T11:56:45.267Z,9.57
2019-02-16T11:59:13.894Z,8.80
2019-02-16T12:04:21.337Z,9.63
2019-02-16T12:06:49.956Z,8.57
2019-02-16T12:09:18.568Z,7.80
2019-02-16T12:14:25.775Z,10.50
2019-02-16T12:16:54.709Z,9.80
2019-02-16T12:19:23.321Z,8.63
2019-02-16T12:21:52.285Z,10.47
2019-02-16T12:24:21.279Z,8.93
2019-02-16T12:26:50.268Z,8.23
2019-02-16T12:29:18.904Z,8.10
2019-02-16T12:31:47.581Z,10.17
2019-02-16T12:34:16.195Z,7.23
2019-02-16T12:36:45.118Z,9.97
2019-02-16T12:39:13.752Z,9.10
2019-02-16T12:41:42.683Z,11.27
2019-02-16T12:44:11.294Z,8.90
2019-02-16T12:46:39.925Z,9.77
2019-02-16T12:49:08.557Z,8.40
2019-02-16T12:51:37.174Z,8.30
2019-02-16T12:54:05.808Z,7.70
2019-02-16T12:56:34.441Z,8.60
2019-02-16T12:59:03.084Z,7.33
2019-02-16T13:01:32.051Z,7.83
2019-02-16T13:04:01.042Z,10.40
2019-02-16T13:06:29.663Z,8.87
2019-02-16T13:11:18.076Z,8.00
2019-02-16T13:13:47.079Z,7.10
2019-02-16T13:16:15.673Z,9.43
2019-02-16T13:18:44.306Z,10.57
2019-02-16T13:21:12.952Z,8.17
2019-02-16T13:23:41.912Z,7.60
2019-02-16T13:26:10.541Z,9.47
2019-02-16T13:28:39.487Z,9.40
2019-02-16T13:31:08.107Z,9.40
2019-02-16T13:33:37.061Z,8.27
2019-02-16T13:36:05.946Z,11.33
2019-02-16T13:38:34.572Z,10.73
2019-02-16T13:41:03.182Z,8.57
2019-02-16T13:43:31.803Z,8.60
2019-02-16T13:46:00.445Z,11.00
2019-02-16T13:48:29.059Z,10.37
2019-02-16T13:50:57.685Z,11.20
2019-02-16T13:53:26.631Z,9.87
2019-02-16T13:55:55.642Z,8.63
2019-02-16T13:58:24.253Z,8.47
2019-02-16T14:00:53.196Z,9.17
2019-02-16T14:03:22.110Z,7.93
2019-02-16T14:05:51.066Z,8.17
2019-02-16T14:08:19.673Z,9.73
2019-02-16T14:10:48.296Z,9.70
2019-02-16T14:13:17.225Z,7.57
2019-02-16T14:15:45.895Z,6.97
2019-02-16T14:18:14.508Z,10.77
2019-02-16T14:20:43.128Z,7.70
2019-02-16T14:23:12.068Z,11.20
2019-02-16T14:25:43.686Z,9.23
2019-02-16T14:28:09.339Z,7.93
2019-02-16T14:30:38.328Z,11.27
2019-02-16T14:33:06.962Z,7.43
2019-02-16T14:35:35.898Z,8.97
2019-02-16T14:38:04.899Z,10.80
2019-02-16T14:40:33.538Z,8.33
2019-02-16T14:43:02.162Z,7.47
2019-02-16T14:45:30.799Z,7.73
2019-02-16T14:47:59.406Z,9.50
2019-02-16T14:50:28.348Z,9.63
2019-02-16T14:52:56.965Z,7.70
2019-02-16T14:55:25.576Z,8.23
2019-02-16T14:57:54.211Z,11.07
2019-02-16T15:00:22.871Z,8.53
2019-02-16T15:02:51.482Z,6.77
2019-02-16T15:05:20.084Z,8.60
2019-02-16T15:07:48.726Z,7.50
2019-02-16T15:10:17.318Z,9.53
2019-02-16T15:12:45.948Z,11.50
2019-02-16T15:15:14.573Z,7.83
2019-02-16T15:17:43.192Z,9.77
2019-02-16T15:20:14.912Z,8.57
2019-02-16T15:22:43.542Z,8.40
2019-02-16T15:25:12.440Z,9.47
2019-02-16T15:27:41.336Z,8.37
2019-02-16T15:30:19.048Z,9.70
2019-02-16T15:32:47.667Z,14.53
2019-02-16T15:35:16.285Z,11.80
2019-02-16T15:37:44.924Z,9.20
2019-02-16T15:40:13.530Z,19.33
2019-02-16T15:42:42.166Z,18.97
2019-02-16T15:45:13.951Z,14.83
2019-02-16T15:47:42.578Z,8.47
2019-02-16T15:50:14.245Z,14.50
2019-02-16T15:52:42.869Z,10.40
2019-02-16T15:55:11.814Z,15.37
2019-02-16T15:57:40.475Z,11.60
2019-02-16T16:00:09.178Z,10.77
2019-02-16T16:02:38.068Z,14.40
2019-02-16T16:05:06.963Z,13.57
2019-02-16T16:07:35.593Z,8.27
2019-02-16T16:10:04.538Z,12.10
2019-02-16T16:12:33.164Z,9.67
2019-02-16T16:15:01.794Z,12.53
2019-02-16T16:17:30.439Z,9.70
2019-02-16T16:19:59.364Z,11.27
2019-02-16T16:22:28.012Z,12.97
2019-02-16T16:24:56.634Z,14.33
2019-02-16T16:27:25.626Z,11.70
2019-02-16T16:29:54.515Z,9.53
2019-02-16T16:32:23.154Z,12.93
2019-02-16T16:34:51.766Z,9.87
2019-02-16T16:37:20.767Z,18.20
2019-02-16T16:42:27.931Z,14.43
2019-02-16T16:44:56.524Z,11.13
2019-02-16T16:47:25.438Z,16.83
2019-02-16T16:49:54.300Z,14.57
2019-02-16T16:52:22.989Z,18.17
2019-02-16T16:54:51.903Z,14.80
2019-02-16T16:57:20.521Z,16.93
2019-02-16T17:02:27.710Z,13.03
2019-02-16T17:04:56.665Z,9.60
2019-02-16T17:07:25.282Z,13.83
2019-02-16T17:09:53.903Z,11.37
2019-02-16T17:12:22.824Z,9.30
2019-02-16T17:17:30.379Z,14.30
2019-02-16T17:19:59.334Z,17.53
2019-02-16T17:22:27.933Z,20.87
2019-02-16T17:24:56.908Z,16.43
2019-02-16T17:27:25.883Z,12.87
2019-02-16T17:29:54.514Z,15.87
2019-02-16T17:32:23.128Z,14.37
2019-02-16T17:34:52.042Z,20.90
2019-02-16T17:37:20.702Z,17.67
2019-02-16T17:39:49.357Z,12.63
2019-02-16T17:42:17.969Z,12.67
2019-02-16T17:47:25.549Z,11.50
2019-02-16T17:49:54.175Z,12.97
2019-02-16T17:52:22.800Z,10.10
2019-02-16T17:57:30.468Z,11.40
2019-02-16T17:59:59.116Z,10.37
2019-02-16T18:02:27.995Z,7.73
2019-02-16T18:04:56.636Z,7.43
2019-02-16T18:07:25.251Z,7.63
2019-02-16T18:09:54.200Z,6.80
2019-02-16T18:12:22.833Z,5.43
2019-02-16T18:17:30.016Z,8.73
2019-02-16T18:19:58.752Z,12.00
2019-02-16T18:22:27.386Z,8.50
2019-02-16T18:24:56.053Z,9.30
2019-02-16T18:27:24.650Z,12.43
2019-02-16T18:29:53.282Z,11.53
2019-02-16T18:32:30.803Z,10.27
2019-02-16T18:37:29.078Z,9.27
2019-02-16T18:39:57.742Z,11.67
2019-02-16T18:42:26.655Z,21.23
2019-02-16T18:44:55.276Z,21.70
2019-02-16T18:47:24.218Z,12.57
2019-02-16T18:49:53.213Z,15.70
2019-02-16T18:52:21.842Z,16.07
2019-02-16T18:57:29.454Z,9.73
2019-02-16T18:59:58.497Z,6.67
2019-02-16T19:02:27.117Z,8.13
2019-02-16T19:04:55.737Z,15.33
2019-02-16T19:07:24.405Z,8.77
2019-02-16T19:09:53.052Z,7.93
2019-02-16T19:12:21.719Z,5.80
2019-02-16T19:14:50.355Z,5.13
2019-02-16T19:17:19.040Z,6.00
2019-02-16T19:19:47.779Z,5.93
2019-02-16T19:22:16.392Z,5.87
2019-02-16T19:24:45.110Z,8.33
2019-02-16T19:27:16.586Z,5.90
2019-02-16T19:29:42.745Z,6.07
2019-02-16T19:32:11.439Z,5.80
2019-02-16T19:34:40.064Z,6.63
2019-02-16T19:37:08.713Z,4.60
2019-02-16T19:39:37.744Z,4.63
2019-02-16T19:42:06.371Z,7.83
2019-02-16T19:44:35.487Z,4.53
2019-02-16T19:47:04.121Z,6.20
2019-02-16T19:49:32.759Z,5.63
2019-02-16T19:52:01.435Z,7.97
2019-02-16T19:54:30.362Z,7.17
2019-02-16T19:56:59.504Z,5.73
2019-02-16T19:59:28.097Z,5.70
2019-02-16T20:01:56.746Z,7.13
2019-02-16T20:04:25.484Z,5.43
2019-02-16T20:06:54.425Z,6.53
2019-02-16T20:09:23.537Z,5.30
2019-02-16T20:11:52.159Z,6.07
2019-02-16T20:14:21.177Z,7.10
2019-02-16T20:16:50.157Z,10.53
2019-02-16T20:19:19.442Z,9.47
2019-02-16T20:21:48.053Z,11.13
2019-02-16T20:24:17.031Z,9.70
2019-02-16T20:26:45.697Z,7.93
2019-02-16T20:29:14.340Z,8.10
2019-02-16T20:31:43.039Z,10.33
2019-02-16T20:34:11.864Z,8.73
2019-02-16T20:36:40.978Z,10.17
2019-02-16T20:39:09.671Z,9.83
2019-02-16T20:41:38.322Z,8.60
2019-02-16T20:44:06.949Z,9.13
2019-02-16T20:46:35.570Z,8.03
2019-02-16T20:49:04.582Z,8.83
2019-02-16T20:51:33.210Z,9.33
2019-02-16T20:54:01.864Z,7.17
2019-02-16T20:56:30.491Z,10.47
2019-02-16T20:58:59.423Z,9.23
2019-02-16T21:01:28.068Z,9.87
2019-02-16T21:03:57.008Z,8.97
2019-02-16T21:06:25.986Z,11.63
2019-02-16T21:08:54.710Z,10.60
2019-02-16T21:11:23.357Z,17.63
2019-02-16T21:13:52.006Z,14.97
2019-02-16T21:16:20.940Z,15.60
2019-02-16T21:18:49.574Z,15.53
2019-02-16T21:21:18.208Z,15.17
2019-02-16T21:23:47.299Z,11.73
2019-02-16T21:26:15.917Z,11.43
2019-02-16T21:28:44.564Z,14.50
2019-02-16T21:31:13.471Z,9.67
2019-02-16T21:33:42.116Z,8.57
2019-02-16T21:36:11.142Z,9.10
2019-02-16T21:38:39.744Z,7.27
2019-02-16T21:41:08.687Z,8.57
2019-02-16T21:43:37.415Z,9.97
2019-02-16T21:46:06.040Z,8.57
2019-02-16T21:48:34.687Z,8.80
2019-02-16T21:51:03.564Z,10.00
2019-02-16T21:53:32.186Z,10.20
2019-02-16T21:56:01.459Z,9.23
2019-02-16T21:58:29.450Z,8.97
2019-02-16T22:00:58.364Z,9.83
2019-02-16T22:03:27.016Z,10.00
2019-02-16T22:05:55.642Z,12.60
2019-02-16T22:08:24.286Z,11.23
2019-02-16T22:10:52.912Z,11.77
2019-02-16T22:13:21.542Z,10.47
2019-02-16T22:15:50.169Z,9.93
2019-02-16T22:18:19.153Z,11.80
2019-02-16T22:20:47.765Z,11.00
2019-02-16T22:23:16.417Z,11.63
2019-02-16T22:25:45.022Z,14.90
2019-02-16T22:28:18.678Z,11.40
2019-02-16T22:30:42.269Z,14.03
2019-02-16T22:33:10.922Z,15.07
2019-02-16T22:35:39.836Z,13.97
2019-02-16T22:38:08.479Z,12.60
2019-02-16T22:40:37.114Z,13.50
2019-02-16T22:43:06.101Z,13.20
2019-02-16T22:45:34.716Z,15.67
2019-02-16T22:48:03.670Z,14.40
2019-02-16T22:50:32.319Z,14.50
2019-02-16T22:53:00.949Z,14.83
2019-02-16T22:55:29.558Z,16.80
2019-02-16T22:57:58.188Z,15.63
2019-02-16T23:00:26.828Z,16.00
2019-02-16T23:02:55.773Z,16.43
2019-02-16T23:05:24.395Z,15.93
2019-02-16T23:07:53.346Z,17.07
2019-02-16T23:10:21.971Z,16.57
2019-02-16T23:12:50.584Z,17.93
2019-02-16T23:15:19.232Z,15.07
2019-02-16T23:17:47.852Z,15.13
2019-02-16T23:20:16.486Z,17.90
2019-02-16T23:22:45.114Z,15.70
2019-02-16T23:25:14.133Z,18.63
2019-02-16T23:27:44.805Z,17.83
2019-02-16T23:30:11.706Z,19.20
2019-02-16T23:32:40.333Z,21.63
2019-02-16T23:35:08.973Z,19.73
2019-02-16T23:37:37.617Z,20.30
2019-02-16T23:40:06.266Z,20.13
2019-02-16T23:42:35.225Z,20.13
2019-02-16T23:45:03.872Z,19.83
2019-02-16T23:47:32.872Z,21.07
2019-02-16T23:50:01.455Z,20.77
2019-02-16T23:52:30.080Z,22.13
2019-02-16T23:54:58.714Z,24.33
2019-02-16T23:57:27.339Z,19.07
2019-02-16T23:59:55.960Z,21.37
